Shoukeimaruno.3 — JI3587 — position and weather

sailwx.info

Track history (hours):
 
Tides and Currents Weather Stations Pressure Air Temp Water Temp Dewpoint Dewpoint Depression Visibility Wind Speed Wind Dir Waves Ship Positions

Shoukeimaruno.3

Last reported at 2016-Feb-07 09:19 UTC. Time now 2016-Feb-12 01:26 UTC.
Position N 35°08' E 139°43'.

Length 77 m; draft 3.8 m.

Type: Cargo ship. MMSI: 431300325.

Date/timePositionNaut miles runAvg speedWind from/ knotsBaromVisibWave heightAir tempDewpointWater temp
2016-Feb-07 09:19N 35°08' E 139°43'912.0
2016-Feb-07 08:34N 35°17' E 139°45'1212.2
2016-Feb-07 07:34N 35°28' E 139°42'4 3.4
2016-Feb-07 06:31N 35°31' E 139°45'0 0.0
2016-Feb-07 05:31N 35°31' E 139°45'0 0.0
2016-Feb-07 04:31N 35°31' E 139°45'0 0.0
2016-Feb-07 03:31N 35°31' E 139°45'0 0.0
2016-Feb-07 02:33N 35°31' E 139°45'0 0.0
2016-Feb-07 01:33N 35°31' E 139°45'2 2.1
2016-Feb-07 00:34N 35°30' E 139°47'1111.4
2016-Feb-06 23:33N 35°19' E 139°44'1111.1
2016-Feb-06 22:33N 35°08' E 139°45'2 0.0
2016-Feb-05 03:33N 35°08' E 139°43'1010.0
2016-Feb-05 02:33N 35°18' E 139°44'7 7.3
2016-Feb-05 01:33N 35°24' E 139°40'0 0.0
2016-Feb-05 00:33N 35°24' E 139°40'0 0.0
2016-Feb-04 23:33N 35°24' E 139°40'0 0.2
2016-Feb-04 22:33N 35°24' E 139°40'7 6.6
2016-Feb-04 21:33N 35°18' E 139°44'1110.5
2016-Feb-04 20:33N 35°08' E 139°46'1211.7
2016-Feb-04 19:33N 34°56' E 139°45'1010.5
2016-Feb-04 18:33N 34°53' E 139°58'1312.6
2016-Feb-04 17:30N 35°01' E 140°11'2411.9
2016-Feb-04 15:27N 35°18' E 140°32'1112.0
2016-Feb-04 14:33N 35°26' E 140°41'  
2016-Jan-31 19:04N 35°33' E 140°48'510.6
2016-Jan-31 18:33N 35°28' E 140°45'1110.8
2016-Jan-31 17:30N 35°19' E 140°36'1111.8
2016-Jan-31 16:33N 35°10' E 140°28'1411.5
2016-Jan-31 15:18N 35°02' E 140°14'811.2
2016-Jan-31 14:33N 34°57' E 140°05'1511.0
2016-Jan-31 13:13N 34°53' E 139°48'911.0
2016-Jan-31 12:21N 35°02' E 139°44'910.7
2016-Jan-31 11:33N 35°11' E 139°45'1010.5
2016-Jan-31 10:33N 35°21' E 139°42'5 4.7
2016-Jan-31 09:33N 35°24' E 139°37'0 0.0
2016-Jan-31 08:33N 35°24' E 139°37'0 0.0
2016-Jan-31 07:33N 35°24' E 139°37'0 0.0
2016-Jan-31 06:33N 35°24' E 139°37'0 0.0
2016-Jan-31 05:33N 35°24' E 139°37'0 0.0
2016-Jan-31 04:33N 35°24' E 139°37'0 0.0
2016-Jan-31 03:33N 35°24' E 139°37'2 2.0
2016-Jan-31 02:33N 35°23' E 139°40'0 0.0
2016-Jan-31 01:33N 35°23' E 139°40'0 0.0
2016-Jan-31 00:33N 35°23' E 139°40'0 0.0
2016-Jan-30 23:33N 35°23' E 139°40'0 0.0
2016-Jan-30 22:33N 35°23' E 139°40'0 0.0
2016-Jan-30 21:33N 35°23' E 139°40'0 0.0
2016-Jan-30 20:33N 35°23' E 139°40'0 0.0
2016-Jan-30 19:33N 35°23' E 139°40'0 0.0
2016-Jan-30 18:33N 35°23' E 139°40'0 0.0
2016-Jan-30 17:33N 35°23' E 139°40'0 0.0
2016-Jan-30 16:33N 35°23' E 139°40'0 0.0
2016-Jan-30 15:33N 35°23' E 139°40'0 0.0
2016-Jan-30 14:33N 35°23' E 139°40'0 0.0
2016-Jan-30 13:33N 35°23' E 139°40'4 4.4
2016-Jan-30 12:33N 35°20' E 139°43'1010.2
2016-Jan-30 11:33N 35°10' E 139°46'8 0.2
2016-Jan-28 12:14N 35°06' E 139°38'812.0
2016-Jan-28 11:33N 35°11' E 139°45'1111.5
2016-Jan-28 10:33N 35°22' E 139°41'2 1.6
2016-Jan-28 09:33N 35°23' E 139°40'  
Track history (hours):
 
Tides and Currents Weather Stations Pressure Air Temp Water Temp Dewpoint Dewpoint Depression Visibility Wind Speed Wind Dir Waves Ship Positions

Shoukeimaruno.3

Last reported at 2016-Feb-07 09:19 UTC. Time now 2016-Feb-12 01:26 UTC.
Position N 35°08' E 139°43'.

Length 77 m; draft 3.8 m.

Type: Cargo ship. MMSI: 431300325.

Date/timePositionNaut miles runAvg speedWind from/ knotsBaromVisibWave heightAir tempDewpointWater temp
2016-Feb-07 09:19N 35°08' E 139°43'912.0
2016-Feb-07 08:34N 35°17' E 139°45'1212.2
2016-Feb-07 07:34N 35°28' E 139°42'4 3.4
2016-Feb-07 06:31N 35°31' E 139°45'0 0.0
2016-Feb-07 05:31N 35°31' E 139°45'0 0.0
2016-Feb-07 04:31N 35°31' E 139°45'0 0.0
2016-Feb-07 03:31N 35°31' E 139°45'0 0.0
2016-Feb-07 02:33N 35°31' E 139°45'0 0.0
2016-Feb-07 01:33N 35°31' E 139°45'2 2.1
2016-Feb-07 00:34N 35°30' E 139°47'1111.4
2016-Feb-06 23:33N 35°19' E 139°44'1111.1
2016-Feb-06 22:33N 35°08' E 139°45'2 0.0
2016-Feb-05 03:33N 35°08' E 139°43'1010.0
2016-Feb-05 02:33N 35°18' E 139°44'7 7.3
2016-Feb-05 01:33N 35°24' E 139°40'0 0.0
2016-Feb-05 00:33N 35°24' E 139°40'0 0.0
2016-Feb-04 23:33N 35°24' E 139°40'0 0.2
2016-Feb-04 22:33N 35°24' E 139°40'7 6.6
2016-Feb-04 21:33N 35°18' E 139°44'1110.5
2016-Feb-04 20:33N 35°08' E 139°46'1211.7
2016-Feb-04 19:33N 34°56' E 139°45'1010.5
2016-Feb-04 18:33N 34°53' E 139°58'1312.6
2016-Feb-04 17:30N 35°01' E 140°11'2411.9
2016-Feb-04 15:27N 35°18' E 140°32'1112.0
2016-Feb-04 14:33N 35°26' E 140°41'  
2016-Jan-31 19:04N 35°33' E 140°48'510.6
2016-Jan-31 18:33N 35°28' E 140°45'1110.8
2016-Jan-31 17:30N 35°19' E 140°36'1111.8
2016-Jan-31 16:33N 35°10' E 140°28'1411.5
2016-Jan-31 15:18N 35°02' E 140°14'811.2
2016-Jan-31 14:33N 34°57' E 140°05'1511.0
2016-Jan-31 13:13N 34°53' E 139°48'911.0
2016-Jan-31 12:21N 35°02' E 139°44'910.7
2016-Jan-31 11:33N 35°11' E 139°45'1010.5
2016-Jan-31 10:33N 35°21' E 139°42'5 4.7
2016-Jan-31 09:33N 35°24' E 139°37'0 0.0
2016-Jan-31 08:33N 35°24' E 139°37'0 0.0
2016-Jan-31 07:33N 35°24' E 139°37'0 0.0
2016-Jan-31 06:33N 35°24' E 139°37'0 0.0
2016-Jan-31 05:33N 35°24' E 139°37'0 0.0
2016-Jan-31 04:33N 35°24' E 139°37'0 0.0
2016-Jan-31 03:33N 35°24' E 139°37'2 2.0
2016-Jan-31 02:33N 35°23' E 139°40'0 0.0
2016-Jan-31 01:33N 35°23' E 139°40'0 0.0
2016-Jan-31 00:33N 35°23' E 139°40'0 0.0
2016-Jan-30 23:33N 35°23' E 139°40'0 0.0
2016-Jan-30 22:33N 35°23' E 139°40'0 0.0
2016-Jan-30 21:33N 35°23' E 139°40'0 0.0
2016-Jan-30 20:33N 35°23' E 139°40'0 0.0
2016-Jan-30 19:33N 35°23' E 139°40'0 0.0
2016-Jan-30 18:33N 35°23' E 139°40'0 0.0
2016-Jan-30 17:33N 35°23' E 139°40'0 0.0
2016-Jan-30 16:33N 35°23' E 139°40'0 0.0
2016-Jan-30 15:33N 35°23' E 139°40'0 0.0
2016-Jan-30 14:33N 35°23' E 139°40'0 0.0
2016-Jan-30 13:33N 35°23' E 139°40'4 4.4
2016-Jan-30 12:33N 35°20' E 139°43'1010.2
2016-Jan-30 11:33N 35°10' E 139°46'8 0.2
2016-Jan-28 12:14N 35°06' E 139°38'812.0
2016-Jan-28 11:33N 35°11' E 139°45'1111.5
2016-Jan-28 10:33N 35°22' E 139°41'2 1.6
2016-Jan-28 09:33N 35°23' E 139°40'  

Dump ship's entire track history